sensor_id;sensor_type;location;lat;lon;timestamp;temperature;humidity
75091;DHT22;63674;48.048;8.306;2023-10-09T00:00:33;7.00;99.90
75091;DHT22;63674;48.048;8.306;2023-10-09T00:03:22;7.00;99.90
75091;DHT22;63674;48.048;8.306;2023-10-09T00:05:51;6.90;99.90
75091;DHT22;63674;48.048;8.306;2023-10-09T00:08:22;6.90;99.90
75091;DHT22;63674;48.048;8.306;2023-10-09T00:11:00;6.90;99.90
75091;DHT22;63674;48.048;8.306;2023-10-09T00:13:41;6.90;99.90
75091;DHT22;63674;48.048;8.306;2023-10-09T00:16:17;6.90;99.90
75091;DHT22;63674;48.048;8.306;2023-10-09T00:19:00;6.90;99.90
75091;DHT22;63674;48.048;8.306;2023-10-09T00:21:41;6.90;99.90
75091;DHT22;63674;48.048;8.306;2023-10-09T00:24:12;6.90;99.90
75091;DHT22;63674;48.048;8.306;2023-10-09T00:26:51;6.80;99.90
75091;DHT22;63674;48.048;8.306;2023-10-09T00:29:23;6.80;99.90
75091;DHT22;63674;48.048;8.306;2023-10-09T00:31:55;6.80;99.90
75091;DHT22;63674;48.048;8.306;2023-10-09T00:34:31;6.80;99.90
75091;DHT22;63674;48.048;8.306;2023-10-09T00:37:07;6.80;99.90
75091;DHT22;63674;48.048;8.306;2023-10-09T00:39:39;6.80;99.90
75091;DHT22;63674;48.048;8.306;2023-10-09T00:42:12;6.80;99.90
75091;DHT22;63674;48.048;8.306;2023-10-09T00:44:42;6.80;99.90
75091;DHT22;63674;48.048;8.306;2023-10-09T00:47:12;6.70;99.90
75091;DHT22;63674;48.048;8.306;2023-10-09T00:49:59;6.70;99.90
75091;DHT22;63674;48.048;8.306;2023-10-09T00:52:38;6.70;99.90
75091;DHT22;63674;48.048;8.306;2023-10-09T00:55:12;6.70;99.90
75091;DHT22;63674;48.048;8.306;2023-10-09T00:57:44;6.70;99.90
75091;DHT22;63674;48.048;8.306;2023-10-09T01:00:23;6.70;99.90
75091;DHT22;63674;48.048;8.306;2023-10-09T01:03:01;6.70;99.90
75091;DHT22;63674;48.048;8.306;2023-10-09T01:05:47;6.70;99.90
75091;DHT22;63674;48.048;8.306;2023-10-09T01:08:24;6.70;99.90
75091;DHT22;63674;48.048;8.306;2023-10-09T01:10:58;6.60;99.90
75091;DHT22;63674;48.048;8.306;2023-10-09T01:13:36;6.60;99.90
75091;DHT22;63674;48.048;8.306;2023-10-09T01:16:21;6.60;99.90
75091;DHT22;63674;48.048;8.306;2023-10-09T01:18:51;6.60;99.90
75091;DHT22;63674;48.048;8.306;2023-10-09T01:21:24;6.20;99.90
75091;DHT22;63674;48.048;8.306;2023-10-09T01:23:55;6.60;99.90
75091;DHT22;63674;48.048;8.306;2023-10-09T01:26:33;6.70;99.90
75091;DHT22;63674;48.048;8.306;2023-10-09T01:29:07;6.70;99.90
75091;DHT22;63674;48.048;8.306;2023-10-09T01:31:38;6.70;99.90
75091;DHT22;63674;48.048;8.306;2023-10-09T01:34:11;6.60;99.90
75091;DHT22;63674;48.048;8.306;2023-10-09T01:36:42;6.60;99.90
75091;DHT22;63674;48.048;8.306;2023-10-09T01:39:13;6.60;99.90
75091;DHT22;63674;48.048;8.306;2023-10-09T01:41:51;6.60;99.90
75091;DHT22;63674;48.048;8.306;2023-10-09T01:44:26;6.50;99.90
75091;DHT22;63674;48.048;8.306;2023-10-09T01:46:57;6.50;99.90
75091;DHT22;63674;48.048;8.306;2023-10-09T01:49:26;6.50;99.90
75091;DHT22;63674;48.048;8.306;2023-10-09T01:51:58;6.50;99.90
75091;DHT22;63674;48.048;8.306;2023-10-09T01:54:36;6.50;99.90
75091;DHT22;63674;48.048;8.306;2023-10-09T01:57:05;6.50;99.90
75091;DHT22;63674;48.048;8.306;2023-10-09T01:59:55;6.50;99.90
75091;DHT22;63674;48.048;8.306;2023-10-09T02:02:43;6.50;99.90
75091;DHT22;63674;48.048;8.306;2023-10-09T02:05:31;6.50;99.90
75091;DHT22;63674;48.048;8.306;2023-10-09T02:08:19;6.60;99.90
75091;DHT22;63674;48.048;8.306;2023-10-09T02:11:08;6.60;99.90
75091;DHT22;63674;48.048;8.306;2023-10-09T02:14:00;6.60;99.90
75091;DHT22;63674;48.048;8.306;2023-10-09T02:16:48;6.60;99.90
75091;DHT22;63674;48.048;8.306;2023-10-09T02:19:53;6.50;99.90
75091;DHT22;63674;48.048;8.306;2023-10-09T02:22:40;6.50;99.90
75091;DHT22;63674;48.048;8.306;2023-10-09T02:25:28;6.50;99.90
75091;DHT22;63674;48.048;8.306;2023-10-09T02:28:21;6.50;99.90
75091;DHT22;63674;48.048;8.306;2023-10-09T02:31:11;6.50;99.90
75091;DHT22;63674;48.048;8.306;2023-10-09T02:33:59;6.50;99.90
75091;DHT22;63674;48.048;8.306;2023-10-09T02:36:58;6.50;99.90
75091;DHT22;63674;48.048;8.306;2023-10-09T02:39:52;6.60;99.90
75091;DHT22;63674;48.048;8.306;2023-10-09T02:42:39;6.50;99.90
75091;DHT22;63674;48.048;8.306;2023-10-09T02:45:30;6.50;99.90
75091;DHT22;63674;48.048;8.306;2023-10-09T02:48:21;6.50;99.90
75091;DHT22;63674;48.048;8.306;2023-10-09T02:53:53;6.50;99.90
75091;DHT22;63674;48.048;8.306;2023-10-09T02:56:42;6.50;99.90
75091;DHT22;63674;48.048;8.306;2023-10-09T02:59:33;6.50;99.90
75091;DHT22;63674;48.048;8.306;2023-10-09T03:02:22;6.60;99.90
75091;DHT22;63674;48.048;8.306;2023-10-09T03:05:09;6.60;99.90
75091;DHT22;63674;48.048;8.306;2023-10-09T03:07:58;6.70;99.90
75091;DHT22;63674;48.048;8.306;2023-10-09T03:10:48;6.70;99.90
75091;DHT22;63674;48.048;8.306;2023-10-09T03:13:17;6.70;99.90
75091;DHT22;63674;48.048;8.306;2023-10-09T03:15:47;6.70;99.90
75091;DHT22;63674;48.048;8.306;2023-10-09T03:18:15;6.70;99.90
75091;DHT22;63674;48.048;8.306;2023-10-09T03:20:44;6.60;99.90
75091;DHT22;63674;48.048;8.306;2023-10-09T03:23:14;6.60;99.90
75091;DHT22;63674;48.048;8.306;2023-10-09T03:25:43;6.70;99.90
75091;DHT22;63674;48.048;8.306;2023-10-09T03:28:13;6.70;99.90
75091;DHT22;63674;48.048;8.306;2023-10-09T03:30:42;6.70;99.90
75091;DHT22;63674;48.048;8.306;2023-10-09T03:33:14;6.70;99.90
75091;DHT22;63674;48.048;8.306;2023-10-09T03:35:43;6.70;99.90
75091;DHT22;63674;48.048;8.306;2023-10-09T03:38:11;6.70;99.90
75091;DHT22;63674;48.048;8.306;2023-10-09T03:40:44;6.80;99.90
75091;DHT22;63674;48.048;8.306;2023-10-09T03:43:16;6.80;99.90
75091;DHT22;63674;48.048;8.306;2023-10-09T03:45:46;6.80;99.90
75091;DHT22;63674;48.048;8.306;2023-10-09T03:48:19;6.80;99.90
75091;DHT22;63674;48.048;8.306;2023-10-09T03:50:53;6.90;99.90
75091;DHT22;63674;48.048;8.306;2023-10-09T03:53:35;6.90;99.90
75091;DHT22;63674;48.048;8.306;2023-10-09T03:56:07;6.90;99.90
75091;DHT22;63674;48.048;8.306;2023-10-09T03:58:41;6.90;99.90
75091;DHT22;63674;48.048;8.306;2023-10-09T04:01:13;6.90;99.90
75091;DHT22;63674;48.048;8.306;2023-10-09T04:03:50;6.90;99.90
75091;DHT22;63674;48.048;8.306;2023-10-09T04:06:22;6.90;99.90
75091;DHT22;63674;48.048;8.306;2023-10-09T04:08:55;6.90;99.90
75091;DHT22;63674;48.048;8.306;2023-10-09T04:11:25;6.90;99.90
75091;DHT22;63674;48.048;8.306;2023-10-09T04:13:55;6.90;99.90
75091;DHT22;63674;48.048;8.306;2023-10-09T04:16:27;7.00;99.90
75091;DHT22;63674;48.048;8.306;2023-10-09T04:19:18;7.00;99.90
75091;DHT22;63674;48.048;8.306;2023-10-09T04:21:49;7.00;99.90
75091;DHT22;63674;48.048;8.306;2023-10-09T04:24:17;7.20;99.90
75091;DHT22;63674;48.048;8.306;2023-10-09T04:26:51;7.20;99.90
75091;DHT22;63674;48.048;8.306;2023-10-09T04:29:27;7.20;99.90
75091;DHT22;63674;48.048;8.306;2023-10-09T04:32:05;7.20;99.90
75091;DHT22;63674;48.048;8.306;2023-10-09T04:34:45;7.20;99.90
75091;DHT22;63674;48.048;8.306;2023-10-09T04:37:17;7.30;99.90
75091;DHT22;63674;48.048;8.306;2023-10-09T04:39:51;7.30;99.90
75091;DHT22;63674;48.048;8.306;2023-10-09T04:42:38;7.40;99.90
75091;DHT22;63674;48.048;8.306;2023-10-09T04:45:14;7.40;99.90
75091;DHT22;63674;48.048;8.306;2023-10-09T04:48:00;7.40;99.90
75091;DHT22;63674;48.048;8.306;2023-10-09T04:50:34;7.40;99.90
75091;DHT22;63674;48.048;8.306;2023-10-09T04:53:35;7.40;99.90
75091;DHT22;63674;48.048;8.306;2023-10-09T04:56:11;7.40;99.90
75091;DHT22;63674;48.048;8.306;2023-10-09T04:58:43;7.40;99.90
75091;DHT22;63674;48.048;8.306;2023-10-09T05:01:14;7.40;99.90
75091;DHT22;63674;48.048;8.306;2023-10-09T05:04:04;7.40;99.90
75091;DHT22;63674;48.048;8.306;2023-10-09T05:06:46;7.50;99.90
75091;DHT22;63674;48.048;8.306;2023-10-09T05:09:23;7.50;99.90
75091;DHT22;63674;48.048;8.306;2023-10-09T05:11:51;7.50;99.90
75091;DHT22;63674;48.048;8.306;2023-10-09T05:14:36;7.50;99.90
75091;DHT22;63674;48.048;8.306;2023-10-09T05:17:08;7.50;99.90
75091;DHT22;63674;48.048;8.306;2023-10-09T05:19:43;7.50;99.90
75091;DHT22;63674;48.048;8.306;2023-10-09T05:22:44;7.50;99.90
75091;DHT22;63674;48.048;8.306;2023-10-09T05:25:25;7.50;99.90
75091;DHT22;63674;48.048;8.306;2023-10-09T05:28:08;7.40;99.90
75091;DHT22;63674;48.048;8.306;2023-10-09T05:30:51;7.40;99.90
75091;DHT22;63674;48.048;8.306;2023-10-09T05:33:31;7.40;99.90
75091;DHT22;63674;48.048;8.306;2023-10-09T05:36:02;7.40;99.90
75091;DHT22;63674;48.048;8.306;2023-10-09T05:38:59;7.50;99.90
75091;DHT22;63674;48.048;8.306;2023-10-09T05:41:45;7.60;99.90
75091;DHT22;63674;48.048;8.306;2023-10-09T05:44:15;7.60;99.90
75091;DHT22;63674;48.048;8.306;2023-10-09T05:47:01;7.60;99.90
75091;DHT22;63674;48.048;8.306;2023-10-09T05:49:49;7.60;99.90
75091;DHT22;63674;48.048;8.306;2023-10-09T05:52:29;7.60;99.90
75091;DHT22;63674;48.048;8.306;2023-10-09T05:55:09;7.60;99.90
75091;DHT22;63674;48.048;8.306;2023-10-09T05:58:08;7.70;99.90
75091;DHT22;63674;48.048;8.306;2023-10-09T06:00:53;7.80;99.90
75091;DHT22;63674;48.048;8.306;2023-10-09T06:03:39;7.90;99.90
75091;DHT22;63674;48.048;8.306;2023-10-09T06:06:23;8.00;99.90
75091;DHT22;63674;48.048;8.306;2023-10-09T06:09:11;8.10;99.90
75091;DHT22;63674;48.048;8.306;2023-10-09T06:11:58;8.10;99.90
75091;DHT22;63674;48.048;8.306;2023-10-09T06:14:44;8.20;99.90
75091;DHT22;63674;48.048;8.306;2023-10-09T06:17:33;8.20;99.90
75091;DHT22;63674;48.048;8.306;2023-10-09T06:20:11;8.30;99.90
75091;DHT22;63674;48.048;8.306;2023-10-09T06:22:55;8.40;99.90
75091;DHT22;63674;48.048;8.306;2023-10-09T06:25:43;8.50;99.90
75091;DHT22;63674;48.048;8.306;2023-10-09T06:28:18;8.60;99.90
75091;DHT22;63674;48.048;8.306;2023-10-09T06:31:00;8.70;99.90
75091;DHT22;63674;48.048;8.306;2023-10-09T06:33:50;8.70;99.90
75091;DHT22;63674;48.048;8.306;2023-10-09T06:36:43;8.80;99.90
75091;DHT22;63674;48.048;8.306;2023-10-09T06:39:21;8.90;99.90
75091;DHT22;63674;48.048;8.306;2023-10-09T06:42:07;9.00;99.90
75091;DHT22;63674;48.048;8.306;2023-10-09T06:45:00;9.20;99.90
75091;DHT22;63674;48.048;8.306;2023-10-09T06:47:32;9.30;99.90
75091;DHT22;63674;48.048;8.306;2023-10-09T06:50:09;9.40;99.90
75091;DHT22;63674;48.048;8.306;2023-10-09T06:52:52;9.50;99.90
75091;DHT22;63674;48.048;8.306;2023-10-09T06:55:45;9.60;99.90
75091;DHT22;63674;48.048;8.306;2023-10-09T06:58:17;9.70;99.90
75091;DHT22;63674;48.048;8.306;2023-10-09T07:00:50;9.70;99.90
75091;DHT22;63674;48.048;8.306;2023-10-09T07:03:36;9.80;99.90
75091;DHT22;63674;48.048;8.306;2023-10-09T07:06:20;9.80;99.90
75091;DHT22;63674;48.048;8.306;2023-10-09T07:08:53;9.90;99.90
75091;DHT22;63674;48.048;8.306;2023-10-09T07:11:45;10.00;99.90
75091;DHT22;63674;48.048;8.306;2023-10-09T07:14:37;10.20;99.90
75091;DHT22;63674;48.048;8.306;2023-10-09T07:17:29;10.30;99.90
75091;DHT22;63674;48.048;8.306;2023-10-09T07:20:13;10.30;99.90
75091;DHT22;63674;48.048;8.306;2023-10-09T07:22:42;10.40;99.90
75091;DHT22;63674;48.048;8.306;2023-10-09T07:25:41;10.50;99.90
75091;DHT22;63674;48.048;8.306;2023-10-09T07:28:23;10.60;99.90
75091;DHT22;63674;48.048;8.306;2023-10-09T07:31:04;10.80;99.90
75091;DHT22;63674;48.048;8.306;2023-10-09T07:33:36;10.80;99.90
75091;DHT22;63674;48.048;8.306;2023-10-09T07:36:28;10.90;99.90
75091;DHT22;63674;48.048;8.306;2023-10-09T07:39:06;11.00;99.90
75091;DHT22;63674;48.048;8.306;2023-10-09T07:41:42;11.10;99.90
75091;DHT22;63674;48.048;8.306;2023-10-09T07:44:25;11.20;99.90
75091;DHT22;63674;48.048;8.306;2023-10-09T07:47:04;11.30;99.90
75091;DHT22;63674;48.048;8.306;2023-10-09T07:49:45;11.30;99.90
75091;DHT22;63674;48.048;8.306;2023-10-09T07:52:21;11.40;99.90
75091;DHT22;63674;48.048;8.306;2023-10-09T07:54:50;11.40;99.90
75091;DHT22;63674;48.048;8.306;2023-10-09T07:57:21;11.50;99.90
75091;DHT22;63674;48.048;8.306;2023-10-09T08:00:08;11.70;99.90
75091;DHT22;63674;48.048;8.306;2023-10-09T08:03:00;11.90;99.90
75091;DHT22;63674;48.048;8.306;2023-10-09T08:05:36;11.90;99.90
75091;DHT22;63674;48.048;8.306;2023-10-09T08:08:11;12.00;99.90
75091;DHT22;63674;48.048;8.306;2023-10-09T08:11:09;12.10;99.90
75091;DHT22;63674;48.048;8.306;2023-10-09T08:13:55;12.20;99.90
75091;DHT22;63674;48.048;8.306;2023-10-09T08:16:30;12.30;99.90
75091;DHT22;63674;48.048;8.306;2023-10-09T08:19:05;12.40;99.90
75091;DHT22;63674;48.048;8.306;2023-10-09T08:21:58;12.30;99.90
75091;DHT22;63674;48.048;8.306;2023-10-09T08:24:45;12.50;99.90
75091;DHT22;63674;48.048;8.306;2023-10-09T08:27:23;12.60;99.90
75091;DHT22;63674;48.048;8.306;2023-10-09T08:30:12;12.60;99.90
75091;DHT22;63674;48.048;8.306;2023-10-09T08:32:55;12.70;99.90
75091;DHT22;63674;48.048;8.306;2023-10-09T08:35:34;12.90;99.90
75091;DHT22;63674;48.048;8.306;2023-10-09T08:38:17;12.90;99.90
75091;DHT22;63674;48.048;8.306;2023-10-09T08:40:51;13.00;99.90
75091;DHT22;63674;48.048;8.306;2023-10-09T08:43:26;13.10;99.90
75091;DHT22;63674;48.048;8.306;2023-10-09T08:46:00;13.10;99.90
75091;DHT22;63674;48.048;8.306;2023-10-09T08:48:30;13.20;99.90
75091;DHT22;63674;48.048;8.306;2023-10-09T08:51:00;13.40;99.90
75091;DHT22;63674;48.048;8.306;2023-10-09T08:53:35;13.50;99.90
75091;DHT22;63674;48.048;8.306;2023-10-09T08:56:10;13.70;99.90
75091;DHT22;63674;48.048;8.306;2023-10-09T08:58:39;13.80;99.90
75091;DHT22;63674;48.048;8.306;2023-10-09T09:01:07;14.00;99.90
75091;DHT22;63674;48.048;8.306;2023-10-09T09:03:39;14.10;99.90
75091;DHT22;63674;48.048;8.306;2023-10-09T09:06:11;14.20;99.90
75091;DHT22;63674;48.048;8.306;2023-10-09T09:08:43;14.30;99.90
75091;DHT22;63674;48.048;8.306;2023-10-09T09:11:14;14.40;99.90
75091;DHT22;63674;48.048;8.306;2023-10-09T09:13:46;14.50;99.90
75091;DHT22;63674;48.048;8.306;2023-10-09T09:16:20;14.50;99.90
75091;DHT22;63674;48.048;8.306;2023-10-09T09:18:58;14.50;99.90
75091;DHT22;63674;48.048;8.306;2023-10-09T09:21:33;14.60;99.90
75091;DHT22;63674;48.048;8.306;2023-10-09T09:24:10;14.60;99.90
75091;DHT22;63674;48.048;8.306;2023-10-09T09:26:55;15.10;99.90
75091;DHT22;63674;48.048;8.306;2023-10-09T09:29:38;14.90;99.90
75091;DHT22;63674;48.048;8.306;2023-10-09T09:32:09;15.00;99.90
75091;DHT22;63674;48.048;8.306;2023-10-09T09:34:48;15.10;99.90
75091;DHT22;63674;48.048;8.306;2023-10-09T09:37:19;15.10;99.90
75091;DHT22;63674;48.048;8.306;2023-10-09T09:39:51;15.30;99.90
75091;DHT22;63674;48.048;8.306;2023-10-09T09:42:22;15.40;99.90
75091;DHT22;63674;48.048;8.306;2023-10-09T09:44:55;15.50;99.90
75091;DHT22;63674;48.048;8.306;2023-10-09T09:47:24;16.00;99.90
75091;DHT22;63674;48.048;8.306;2023-10-09T09:49:55;16.50;99.90
75091;DHT22;63674;48.048;8.306;2023-10-09T09:52:31;16.80;99.90
75091;DHT22;63674;48.048;8.306;2023-10-09T09:55:09;16.80;99.90
75091;DHT22;63674;48.048;8.306;2023-10-09T09:57:44;16.90;99.90
75091;DHT22;63674;48.048;8.306;2023-10-09T10:00:21;17.20;99.90
75091;DHT22;63674;48.048;8.306;2023-10-09T10:03:12;17.50;99.90
75091;DHT22;63674;48.048;8.306;2023-10-09T10:05:45;17.50;99.90
75091;DHT22;63674;48.048;8.306;2023-10-09T10:08:17;17.70;99.90
75091;DHT22;63674;48.048;8.306;2023-10-09T10:10:49;17.80;99.90
75091;DHT22;63674;48.048;8.306;2023-10-09T10:13:56;17.80;99.90
75091;DHT22;63674;48.048;8.306;2023-10-09T10:16:31;18.10;99.70
75091;DHT22;63674;48.048;8.306;2023-10-09T10:19:04;18.10;99.90
75091;DHT22;63674;48.048;8.306;2023-10-09T10:21:49;18.20;95.80
75091;DHT22;63674;48.048;8.306;2023-10-09T10:24:47;18.30;99.90
75091;DHT22;63674;48.048;8.306;2023-10-09T10:27:31;18.30;99.90
75091;DHT22;63674;48.048;8.306;2023-10-09T10:30:28;18.30;99.20
75091;DHT22;63674;48.048;8.306;2023-10-09T10:33:04;18.40;99.90
75091;DHT22;63674;48.048;8.306;2023-10-09T10:35:43;18.40;99.90
75091;DHT22;63674;48.048;8.306;2023-10-09T10:38:30;18.50;99.90
75091;DHT22;63674;48.048;8.306;2023-10-09T10:41:14;18.50;96.80
75091;DHT22;63674;48.048;8.306;2023-10-09T10:43:50;18.40;97.90
75091;DHT22;63674;48.048;8.306;2023-10-09T10:46:28;18.50;99.90
75091;DHT22;63674;48.048;8.306;2023-10-09T10:49:06;18.70;94.90
75091;DHT22;63674;48.048;8.306;2023-10-09T10:51:48;19.00;92.10
75091;DHT22;63674;48.048;8.306;2023-10-09T10:54:29;19.30;93.30
75091;DHT22;63674;48.048;8.306;2023-10-09T10:57:36;19.60;99.90
75091;DHT22;63674;48.048;8.306;2023-10-09T11:00:24;19.80;96.10
75091;DHT22;63674;48.048;8.306;2023-10-09T11:03:10;20.10;91.70
75091;DHT22;63674;48.048;8.306;2023-10-09T11:05:51;20.20;81.80
75091;DHT22;63674;48.048;8.306;2023-10-09T11:08:24;20.40;80.40
75091;DHT22;63674;48.048;8.306;2023-10-09T11:11:12;20.30;75.70
75091;DHT22;63674;48.048;8.306;2023-10-09T11:13:43;20.20;84.80
75091;DHT22;63674;48.048;8.306;2023-10-09T11:16:23;20.20;78.30
75091;DHT22;63674;48.048;8.306;2023-10-09T11:19:11;20.40;77.00
75091;DHT22;63674;48.048;8.306;2023-10-09T11:21:51;20.50;70.40
75091;DHT22;63674;48.048;8.306;2023-10-09T11:24:48;20.50;81.60
75091;DHT22;63674;48.048;8.306;2023-10-09T11:27:28;20.60;70.00
75091;DHT22;63674;48.048;8.306;2023-10-09T11:30:00;20.60;91.20
75091;DHT22;63674;48.048;8.306;2023-10-09T11:32:40;20.60;94.10
75091;DHT22;63674;48.048;8.306;2023-10-09T11:35:10;20.80;79.30
75091;DHT22;63674;48.048;8.306;2023-10-09T11:37:41;20.80;91.50
75091;DHT22;63674;48.048;8.306;2023-10-09T11:40:28;20.80;81.60
75091;DHT22;63674;48.048;8.306;2023-10-09T11:43:01;20.70;82.50
75091;DHT22;63674;48.048;8.306;2023-10-09T11:45:31;20.70;80.20
75091;DHT22;63674;48.048;8.306;2023-10-09T11:48:21;20.80;69.20
75091;DHT22;63674;48.048;8.306;2023-10-09T11:50:54;21.10;77.80
75091;DHT22;63674;48.048;8.306;2023-10-09T11:53:40;21.10;76.60
75091;DHT22;63674;48.048;8.306;2023-10-09T11:56:10;21.20;79.80
75091;DHT22;63674;48.048;8.306;2023-10-09T11:58:41;21.20;69.10
75091;DHT22;63674;48.048;8.306;2023-10-09T12:01:12;21.20;75.70
75091;DHT22;63674;48.048;8.306;2023-10-09T12:03:46;21.30;67.60
75091;DHT22;63674;48.048;8.306;2023-10-09T12:06:19;21.50;60.40
75091;DHT22;63674;48.048;8.306;2023-10-09T12:08:50;21.90;62.50
75091;DHT22;63674;48.048;8.306;2023-10-09T12:11:21;22.10;59.50
75091;DHT22;63674;48.048;8.306;2023-10-09T12:13:56;22.30;69.70
75091;DHT22;63674;48.048;8.306;2023-10-09T12:16:28;22.20;58.70
75091;DHT22;63674;48.048;8.306;2023-10-09T12:18:58;22.10;56.70
75091;DHT22;63674;48.048;8.306;2023-10-09T12:21:29;22.20;57.20
75091;DHT22;63674;48.048;8.306;2023-10-09T12:23:58;22.20;55.20
75091;DHT22;63674;48.048;8.306;2023-10-09T12:26:29;22.30;60.50
75091;DHT22;63674;48.048;8.306;2023-10-09T12:29:02;22.30;54.90
75091;DHT22;63674;48.048;8.306;2023-10-09T12:31:38;22.30;56.20
75091;DHT22;63674;48.048;8.306;2023-10-09T12:34:10;22.20;55.90
75091;DHT22;63674;48.048;8.306;2023-10-09T12:36:45;22.10;55.20
75091;DHT22;63674;48.048;8.306;2023-10-09T12:39:13;22.00;55.00
75091;DHT22;63674;48.048;8.306;2023-10-09T12:41:45;22.00;59.90
75091;DHT22;63674;48.048;8.306;2023-10-09T12:44:15;22.00;60.00
75091;DHT22;63674;48.048;8.306;2023-10-09T12:46:46;22.10;56.50
75091;DHT22;63674;48.048;8.306;2023-10-09T12:49:22;22.00;59.50
75091;DHT22;63674;48.048;8.306;2023-10-09T12:51:52;21.90;54.90
75091;DHT22;63674;48.048;8.306;2023-10-09T12:54:21;21.90;56.50
75091;DHT22;63674;48.048;8.306;2023-10-09T12:56:54;21.90;56.20
75091;DHT22;63674;48.048;8.306;2023-10-09T12:59:24;21.80;55.20
75091;DHT22;63674;48.048;8.306;2023-10-09T13:01:53;21.70;54.40
75091;DHT22;63674;48.048;8.306;2023-10-09T13:04:28;21.60;54.90
75091;DHT22;63674;48.048;8.306;2023-10-09T13:07:00;21.60;60.20
75091;DHT22;63674;48.048;8.306;2023-10-09T13:09:31;21.70;56.20
75091;DHT22;63674;48.048;8.306;2023-10-09T13:12:10;21.60;57.60
75091;DHT22;63674;48.048;8.306;2023-10-09T13:14:46;21.60;56.70
75091;DHT22;63674;48.048;8.306;2023-10-09T13:17:17;21.70;60.30
75091;DHT22;63674;48.048;8.306;2023-10-09T13:19:52;21.80;55.70
75091;DHT22;63674;48.048;8.306;2023-10-09T13:22:21;22.00;61.70
75091;DHT22;63674;48.048;8.306;2023-10-09T13:24:50;21.80;55.60
75091;DHT22;63674;48.048;8.306;2023-10-09T13:27:30;21.90;55.80
75091;DHT22;63674;48.048;8.306;2023-10-09T13:30:01;21.70;59.90
75091;DHT22;63674;48.048;8.306;2023-10-09T13:32:32;21.70;55.90
75091;DHT22;63674;48.048;8.306;2023-10-09T13:35:05;21.60;56.50
75091;DHT22;63674;48.048;8.306;2023-10-09T13:37:35;21.60;57.10
75091;DHT22;63674;48.048;8.306;2023-10-09T13:40:05;21.60;56.20
75091;DHT22;63674;48.048;8.306;2023-10-09T13:42:38;21.60;57.60
75091;DHT22;63674;48.048;8.306;2023-10-09T13:45:08;21.60;58.50
75091;DHT22;63674;48.048;8.306;2023-10-09T13:47:42;21.60;60.50
75091;DHT22;63674;48.048;8.306;2023-10-09T13:50:14;21.60;60.70
75091;DHT22;63674;48.048;8.306;2023-10-09T13:52:43;21.50;66.10
75091;DHT22;63674;48.048;8.306;2023-10-09T13:55:11;21.40;60.80
75091;DHT22;63674;48.048;8.306;2023-10-09T13:57:43;21.30;59.20
75091;DHT22;63674;48.048;8.306;2023-10-09T14:00:14;21.30;57.20
75091;DHT22;63674;48.048;8.306;2023-10-09T14:03:00;21.30;56.60
75091;DHT22;63674;48.048;8.306;2023-10-09T14:05:40;21.20;60.60
75091;DHT22;63674;48.048;8.306;2023-10-09T14:08:20;21.30;59.00
75091;DHT22;63674;48.048;8.306;2023-10-09T14:10:50;21.30;59.70
75091;DHT22;63674;48.048;8.306;2023-10-09T14:13:18;21.40;62.20
75091;DHT22;63674;48.048;8.306;2023-10-09T14:15:53;21.60;57.00
75091;DHT22;63674;48.048;8.306;2023-10-09T14:18:23;21.70;58.60
75091;DHT22;63674;48.048;8.306;2023-10-09T14:20:53;21.70;58.80
75091;DHT22;63674;48.048;8.306;2023-10-09T14:23:23;21.80;55.70
75091;DHT22;63674;48.048;8.306;2023-10-09T14:25:59;21.80;60.90
75091;DHT22;63674;48.048;8.306;2023-10-09T14:28:29;22.00;58.20
75091;DHT22;63674;48.048;8.306;2023-10-09T14:30:58;22.00;55.60
75091;DHT22;63674;48.048;8.306;2023-10-09T14:33:28;22.00;54.70
75091;DHT22;63674;48.048;8.306;2023-10-09T14:36:05;22.00;57.20
75091;DHT22;63674;48.048;8.306;2023-10-09T14:38:34;21.90;59.00
75091;DHT22;63674;48.048;8.306;2023-10-09T14:41:06;21.90;60.00
75091;DHT22;63674;48.048;8.306;2023-10-09T14:43:39;21.90;61.20
75091;DHT22;63674;48.048;8.306;2023-10-09T14:46:13;21.90;58.50
75091;DHT22;63674;48.048;8.306;2023-10-09T14:48:42;21.80;59.50
75091;DHT22;63674;48.048;8.306;2023-10-09T14:51:15;21.70;58.80
75091;DHT22;63674;48.048;8.306;2023-10-09T14:53:43;21.60;56.20
75091;DHT22;63674;48.048;8.306;2023-10-09T14:56:12;21.50;59.80
75091;DHT22;63674;48.048;8.306;2023-10-09T14:58:43;21.40;58.60
75091;DHT22;63674;48.048;8.306;2023-10-09T15:01:14;21.40;58.60
75091;DHT22;63674;48.048;8.306;2023-10-09T15:03:46;21.30;61.00
75091;DHT22;63674;48.048;8.306;2023-10-09T15:06:21;21.30;61.30
75091;DHT22;63674;48.048;8.306;2023-10-09T15:08:51;21.20;65.60
75091;DHT22;63674;48.048;8.306;2023-10-09T15:11:22;21.10;63.20
75091;DHT22;63674;48.048;8.306;2023-10-09T15:13:52;21.00;62.80
75091;DHT22;63674;48.048;8.306;2023-10-09T15:16:21;20.90;66.10
75091;DHT22;63674;48.048;8.306;2023-10-09T15:18:54;20.90;63.90
75091;DHT22;63674;48.048;8.306;2023-10-09T15:21:25;20.80;69.40
75091;DHT22;63674;48.048;8.306;2023-10-09T15:23:56;20.60;77.70
75091;DHT22;63674;48.048;8.306;2023-10-09T15:26:24;20.50;82.50
75091;DHT22;63674;48.048;8.306;2023-10-09T15:29:00;20.40;76.50
75091;DHT22;63674;48.048;8.306;2023-10-09T15:31:34;20.30;84.90
75091;DHT22;63674;48.048;8.306;2023-10-09T15:34:03;20.40;72.60
75091;DHT22;63674;48.048;8.306;2023-10-09T15:36:37;20.40;85.90
75091;DHT22;63674;48.048;8.306;2023-10-09T15:39:07;20.30;83.90
75091;DHT22;63674;48.048;8.306;2023-10-09T15:41:38;20.30;86.60
75091;DHT22;63674;48.048;8.306;2023-10-09T15:44:08;20.30;80.30
75091;DHT22;63674;48.048;8.306;2023-10-09T15:46:37;20.20;76.10
75091;DHT22;63674;48.048;8.306;2023-10-09T15:49:06;20.20;87.20
75091;DHT22;63674;48.048;8.306;2023-10-09T15:51:37;20.20;95.20
75091;DHT22;63674;48.048;8.306;2023-10-09T15:54:06;20.10;97.60
75091;DHT22;63674;48.048;8.306;2023-10-09T15:56:37;20.00;94.10
75091;DHT22;63674;48.048;8.306;2023-10-09T15:59:14;19.90;99.90
75091;DHT22;63674;48.048;8.306;2023-10-09T16:01:44;19.80;99.90
75091;DHT22;63674;48.048;8.306;2023-10-09T16:04:12;19.70;99.90
75091;DHT22;63674;48.048;8.306;2023-10-09T16:06:44;19.60;99.90
75091;DHT22;63674;48.048;8.306;2023-10-09T16:09:13;19.50;99.90
75091;DHT22;63674;48.048;8.306;2023-10-09T16:11:48;19.40;99.90
75091;DHT22;63674;48.048;8.306;2023-10-09T16:14:17;19.20;99.90
75091;DHT22;63674;48.048;8.306;2023-10-09T16:16:45;19.00;99.90
75091;DHT22;63674;48.048;8.306;2023-10-09T16:19:14;18.60;99.90
75091;DHT22;63674;48.048;8.306;2023-10-09T16:21:44;18.40;99.90
75091;DHT22;63674;48.048;8.306;2023-10-09T16:24:13;18.30;99.90
75091;DHT22;63674;48.048;8.306;2023-10-09T16:26:42;18.20;99.90
75091;DHT22;63674;48.048;8.306;2023-10-09T16:29:12;17.90;99.90
75091;DHT22;63674;48.048;8.306;2023-10-09T16:31:42;17.70;99.90
75091;DHT22;63674;48.048;8.306;2023-10-09T16:34:11;17.40;99.90
75091;DHT22;63674;48.048;8.306;2023-10-09T16:36:44;17.30;99.90
75091;DHT22;63674;48.048;8.306;2023-10-09T16:39:12;17.10;99.90
75091;DHT22;63674;48.048;8.306;2023-10-09T16:41:49;16.90;99.90